Time;durP1;ratioP1;P1;durP2;ratioP2;P2;SDS_P1;SDS_P2;PMS_P1;PMS_P2;Temp;Humidity;BMP_temperature;BMP_pressure;BME280_temperature;BME280_humidity;BME280_pressure;Samples;Min_cycle;Max_cycle;Signal;HPM_P1;HPM_P2
2023/03/11 00:00:35;;;;;;;2.53;0.32;;;;;;;;;;5260507;28;20123;-71
2023/03/11 00:03:07;;;;;;;3.13;0.20;;;;;;;;;;5260528;28;20013;-71
2023/03/11 00:05:40;;;;;;;2.93;0.57;;;;;;;;;;5260613;28;20521;-70
2023/03/11 00:08:13;;;;;;;2.50;0.33;;;;;;;;;;5260472;28;20048;-70
2023/03/11 00:10:45;;;;;;;4.83;0.30;;;;;;;;;;5260457;28;20037;-71
2023/03/11 00:13:16;;;;;;;1.93;0.30;;;;;;;;;;5261383;28;20363;-71
2023/03/11 00:15:49;;;;;;;2.97;0.20;;;;;;;;;;5260001;28;20045;-71
2023/03/11 00:18:24;;;;;;;2.37;0.30;;;;;;;;;;5260574;28;20067;-71
2023/03/11 00:20:56;;;;;;;2.90;0.22;;;;;;;;;;5261140;28;20055;-71
2023/03/11 00:23:28;;;;;;;3.07;0.57;;;;;;;;;;5259918;28;20009;-71
2023/03/11 00:26:01;;;;;;;2.57;0.40;;;;;;;;;;5260875;28;20029;-72
2023/03/11 00:28:33;;;;;;;3.33;0.43;;;;;;;;;;5260295;28;20029;-71
2023/03/11 00:31:04;;;;;;;3.80;0.40;;;;;;;;;;5260051;28;20021;-71
2023/03/11 00:33:35;;;;;;;2.83;0.30;;;;;;;;;;5260590;28;20108;-71
2023/03/11 00:36:06;;;;;;;4.27;0.60;;;;;;;;;;5260299;28;20021;-71
2023/03/11 00:38:38;;;;;;;1.67;0.30;;;;;;;;;;5260510;28;20020;-71
2023/03/11 00:41:09;;;;;;;2.77;0.37;;;;;;;;;;5260797;28;20025;-71
2023/03/11 00:43:40;;;;;;;4.30;0.40;;;;;;;;;;5259345;28;20057;-71
2023/03/11 00:46:11;;;;;;;2.47;0.30;;;;;;;;;;5261089;28;20021;-71
2023/03/11 00:48:42;;;;;;;3.53;0.33;;;;;;;;;;5260185;28;20024;-72
2023/03/11 00:51:14;;;;;;;5.40;0.50;;;;;;;;;;5259655;28;20514;-72
2023/03/11 00:53:45;;;;;;;5.20;0.63;;;;;;;;;;5260362;28;20479;-71
2023/03/11 00:56:16;;;;;;;3.07;0.33;;;;;;;;;;5260780;28;20037;-70
2023/03/11 00:58:47;;;;;;;3.00;0.40;;;;;;;;;;5262545;28;20047;-70
2023/03/11 01:01:19;;;;;;;1.33;0.33;;;;;;;;;;5264575;28;20040;-71
2023/03/11 01:03:50;;;;;;;4.13;0.40;;;;;;;;;;5264172;28;20017;-71
2023/03/11 01:06:21;;;;;;;2.47;0.40;;;;;;;;;;5263205;28;20099;-70
2023/03/11 01:08:52;;;;;;;3.28;0.30;;;;;;;;;;5263959;28;20384;-71
2023/03/11 01:11:24;;;;;;;4.83;0.50;;;;;;;;;;5262910;28;20499;-72
2023/03/11 01:13:55;;;;;;;5.87;0.50;;;;;;;;;;5264401;28;20029;-71
2023/03/11 01:16:26;;;;;;;2.87;0.40;;;;;;;;;;5263469;28;20029;-71
2023/03/11 01:18:57;;;;;;;2.83;0.30;;;;;;;;;;5263248;28;20479;-71
2023/03/11 01:21:28;;;;;;;5.47;0.47;;;;;;;;;;5263783;28;20135;-70
2023/03/11 01:24:00;;;;;;;3.47;0.30;;;;;;;;;;5264151;28;20029;-72
2023/03/11 01:26:31;;;;;;;1.77;0.40;;;;;;;;;;5262487;28;20021;-71
2023/03/11 01:29:02;;;;;;;3.33;0.40;;;;;;;;;;5263842;28;20056;-71
2023/03/11 01:31:33;;;;;;;5.07;0.60;;;;;;;;;;5263152;28;20391;-71
2023/03/11 01:34:04;;;;;;;2.60;0.63;;;;;;;;;;5263239;28;20487;-71
2023/03/11 01:36:36;;;;;;;2.23;0.50;;;;;;;;;;5263441;28;20043;-71
2023/03/11 01:39:07;;;;;;;2.57;0.40;;;;;;;;;;5263894;28;20051;-72
2023/03/11 01:41:38;;;;;;;3.17;0.50;;;;;;;;;;5262169;28;20021;-71
2023/03/11 01:44:12;;;;;;;3.47;0.50;;;;;;;;;;5263499;28;20033;-71
2023/03/11 01:46:52;;;;;;;4.03;0.50;;;;;;;;;;5262256;28;20090;-71
2023/03/11 01:49:24;;;;;;;4.23;0.40;;;;;;;;;;5263065;28;20052;-71
2023/03/11 01:52:03;;;;;;;5.90;0.43;;;;;;;;;;5263482;28;20106;-71
2023/03/11 01:54:35;;;;;;;3.78;0.30;;;;;;;;;;5262033;28;20017;-71
2023/03/11 01:57:08;;;;;;;5.20;0.60;;;;;;;;;;5263419;28;20017;-71
2023/03/11 01:59:42;;;;;;;1.67;0.30;;;;;;;;;;5262752;28;20025;-71
2023/03/11 02:02:13;;;;;;;3.37;0.30;;;;;;;;;;5262447;28;20041;-71
2023/03/11 02:04:44;;;;;;;4.20;0.40;;;;;;;;;;5262608;28;20068;-71
2023/03/11 02:07:16;;;;;;;3.67;0.50;;;;;;;;;;5263324;28;20013;-71
2023/03/11 02:09:47;;;;;;;4.53;0.40;;;;;;;;;;5262241;28;20100;-71
2023/03/11 02:12:18;;;;;;;2.13;0.30;;;;;;;;;;5263160;28;20131;-72
2023/03/11 02:14:52;;;;;;;1.43;0.37;;;;;;;;;;5261852;28;20021;-72
2023/03/11 02:17:24;;;;;;;2.27;0.30;;;;;;;;;;5262413;28;20025;-72
2023/03/11 02:19:58;;;;;;;3.17;0.63;;;;;;;;;;5262798;28;20036;-71
2023/03/11 02:22:32;;;;;;;2.10;0.30;;;;;;;;;;5261348;28;20075;-71
2023/03/11 02:25:06;;;;;;;3.67;0.30;;;;;;;;;;5263043;28;20040;-72
2023/03/11 02:27:40;;;;;;;3.83;0.37;;;;;;;;;;5262244;28;20432;-71
2023/03/11 02:30:11;;;;;;;4.20;0.87;;;;;;;;;;5261950;28;20025;-71
2023/03/11 02:32:43;;;;;;;1.97;0.30;;;;;;;;;;5262081;28;20072;-71
2023/03/11 02:35:15;;;;;;;3.13;0.30;;;;;;;;;;5262786;28;20092;-72
2023/03/11 02:37:48;;;;;;;5.03;0.40;;;;;;;;;;5261386;28;20124;-71
2023/03/11 02:40:19;;;;;;;2.43;0.30;;;;;;;;;;5262167;28;20017;-71
2023/03/11 02:42:51;;;;;;;4.30;0.40;;;;;;;;;;5261583;28;20091;-71
2023/03/11 02:45:24;;;;;;;3.23;0.37;;;;;;;;;;5262140;28;20092;-72
2023/03/11 02:47:57;;;;;;;2.17;0.33;;;;;;;;;;5262600;28;20379;-71
2023/03/11 02:50:29;;;;;;;3.20;0.30;;;;;;;;;;5260669;28;20091;-72
2023/03/11 02:53:00;;;;;;;3.43;0.33;;;;;;;;;;5262241;28;20445;-71
2023/03/11 02:55:31;;;;;;;1.10;0.30;;;;;;;;;;5261604;28;20057;-72
2023/03/11 02:58:02;;;;;;;2.73;0.40;;;;;;;;;;5261577;28;20514;-72
2023/03/11 03:00:33;;;;;;;3.60;0.40;;;;;;;;;;5261542;28;20033;-71
2023/03/11 03:03:05;;;;;;;2.87;0.40;;;;;;;;;;5262018;28;20025;-72
2023/03/11 03:05:36;;;;;;;4.47;0.50;;;;;;;;;;5260467;28;20031;-72
2023/03/11 03:08:07;;;;;;;4.03;0.40;;;;;;;;;;5262188;28;20468;-72
2023/03/11 03:10:38;;;;;;;1.37;0.30;;;;;;;;;;5260685;28;20069;-72
2023/03/11 03:13:09;;;;;;;2.77;0.40;;;;;;;;;;5262066;28;20460;-72
2023/03/11 03:15:41;;;;;;;3.83;0.30;;;;;;;;;;5261107;28;20100;-72
2023/03/11 03:18:12;;;;;;;5.40;0.60;;;;;;;;;;5261374;28;20092;-71
2023/03/11 03:20:43;;;;;;;3.60;0.40;;;;;;;;;;5261110;28;20024;-72
2023/03/11 03:23:14;;;;;;;2.07;0.30;;;;;;;;;;5261916;28;20064;-71
2023/03/11 03:25:45;;;;;;;2.50;0.50;;;;;;;;;;5260424;28;20050;-71
2023/03/11 03:28:17;;;;;;;2.37;0.30;;;;;;;;;;5261610;28;20083;-72
2023/03/11 03:30:48;;;;;;;3.60;0.40;;;;;;;;;;5261198;28;20107;-71
2023/03/11 03:33:19;;;;;;;1.60;0.40;;;;;;;;;;5260507;28;20032;-71
2023/03/11 03:35:50;;;;;;;6.10;0.47;;;;;;;;;;5261317;28;20559;-71
2023/03/11 03:38:21;;;;;;;4.47;0.23;;;;;;;;;;5261236;28;20056;-72
2023/03/11 03:40:53;;;;;;;4.17;0.37;;;;;;;;;;5260449;28;20463;-72
2023/03/11 03:43:24;;;;;;;2.33;0.40;;;;;;;;;;5260913;28;20142;-72
2023/03/11 03:46:03;;;;;;;4.93;0.33;;;;;;;;;;5260850;28;20029;-72
2023/03/11 03:48:34;;;;;;;2.58;0.30;;;;;;;;;;5260919;28;20021;-71
2023/03/11 03:51:06;;;;;;;2.60;0.30;;;;;;;;;;5261182;28;20147;-71
2023/03/11 03:53:38;;;;;;;4.07;0.63;;;;;;;;;;5260175;28;20013;-72
2023/03/11 03:56:10;;;;;;;1.53;0.60;;;;;;;;;;5261506;28;20021;-71
2023/03/11 03:58:41;;;;;;;3.40;0.30;;;;;;;;;;5260785;28;20052;-73
2023/03/11 04:01:13;;;;;;;1.83;0.40;;;;;;;;;;5260551;28;20471;-72
2023/03/11 04:03:44;;;;;;;2.90;0.20;;;;;;;;;;5260524;28;20025;-72
2023/03/11 04:06:19;;;;;;;3.93;0.40;;;;;;;;;;5261504;28;20028;-72
2023/03/11 04:08:51;;;;;;;5.13;1.10;;;;;;;;;;5260355;28;20016;-71
2023/03/11 04:11:22;;;;;;;4.47;0.30;;;;;;;;;;5260996;28;20036;-71
2023/03/11 04:13:53;;;;;;;6.90;0.40;;;;;;;;;;5260377;28;20038;-71
2023/03/11 04:16:25;;;;;;;5.80;0.40;;;;;;;;;;5260064;28;20103;-72
2023/03/11 04:18:56;;;;;;;7.60;0.40;;;;;;;;;;5261026;28;20021;-71
2023/03/11 04:21:27;;;;;;;2.67;0.33;;;;;;;;;;5259888;28;20464;-71
2023/03/11 04:23:59;;;;;;;3.80;0.40;;;;;;;;;;5260998;28;20154;-71
2023/03/11 04:26:30;;;;;;;3.17;0.40;;;;;;;;;;5260374;28;20028;-72
2023/03/11 04:29:01;;;;;;;6.83;1.33;;;;;;;;;;5260445;28;20029;-72
2023/03/11 04:31:32;;;;;;;3.70;0.50;;;;;;;;;;5260279;28;20083;-72
2023/03/11 04:34:04;;;;;;;2.77;0.30;;;;;;;;;;5264919;28;20096;-72
2023/03/11 04:36:35;;;;;;;1.97;0.30;;;;;;;;;;5263534;28;20029;-71
2023/03/11 04:39:06;;;;;;;3.47;0.30;;;;;;;;;;5265002;28;20506;-72
2023/03/11 04:41:37;;;;;;;2.23;0.30;;;;;;;;;;5264315;28;20052;-72
2023/03/11 04:44:09;;;;;;;2.50;0.27;;;;;;;;;;5264095;28;20468;-72
2023/03/11 04:46:40;;;;;;;4.97;0.67;;;;;;;;;;5264339;28;20032;-72
2023/03/11 04:49:11;;;;;;;4.43;0.40;;;;;;;;;;5263682;28;20036;-72
2023/03/11 04:51:42;;;;;;;3.50;0.30;;;;;;;;;;5263883;28;20431;-73
2023/03/11 04:54:13;;;;;;;2.60;0.50;;;;;;;;;;5264766;28;20396;-72
2023/03/11 04:56:44;;;;;;;3.12;0.36;;;;;;;;;;5263412;28;20036;-72
2023/03/11 04:59:16;;;;;;;3.00;0.40;;;;;;;;;;5264720;28;20038;-72
2023/03/11 05:01:47;;;;;;;4.37;0.40;;;;;;;;;;5263759;28;20013;-72
2023/03/11 05:04:18;;;;;;;2.83;0.40;;;;;;;;;;5263559;28;20031;-72
2023/03/11 05:06:52;;;;;;;3.80;0.50;;;;;;;;;;5263893;28;20029;-72
2023/03/11 05:09:23;;;;;;;1.73;0.30;;;;;;;;;;5263894;28;20029;-72
2023/03/11 05:11:55;;;;;;;1.80;0.50;;;;;;;;;;5263724;28;20368;-72
2023/03/11 05:14:26;;;;;;;4.03;0.50;;;;;;;;;;5263427;28;20021;-72
2023/03/11 05:16:57;;;;;;;3.07;0.30;;;;;;;;;;5264206;28;20113;-71
2023/03/11 05:19:33;;;;;;;1.43;0.40;;;;;;;;;;5262905;28;20475;-72
2023/03/11 05:22:05;;;;;;;2.20;0.50;;;;;;;;;;5264056;28;20047;-71
2023/03/11 05:24:36;;;;;;;2.40;0.33;;;;;;;;;;5262602;28;20021;-72
2023/03/11 05:27:07;;;;;;;3.33;0.40;;;;;;;;;;5263740;28;20017;-73
2023/03/11 05:29:38;;;;;;;1.97;0.30;;;;;;;;;;5262978;28;20087;-71
2023/03/11 05:32:10;;;;;;;1.97;0.40;;;;;;;;;;5263048;28;20029;-71
2023/03/11 05:34:41;;;;;;;3.87;0.30;;;;;;;;;;5262955;28;20020;-71
2023/03/11 05:37:12;;;;;;;1.93;0.60;;;;;;;;;;5263566;28;20027;-72
2023/03/11 05:39:44;;;;;;;4.80;0.40;;;;;;;;;;5262397;28;20037;-71
2023/03/11 05:42:15;;;;;;;1.73;0.30;;;;;;;;;;5263592;28;20024;-72
2023/03/11 05:44:46;;;;;;;5.07;0.40;;;;;;;;;;5262783;28;20017;-72
2023/03/11 05:47:18;;;;;;;2.43;0.30;;;;;;;;;;5262787;28;20379;-72
2023/03/11 05:49:49;;;;;;;2.47;0.37;;;;;;;;;;5262605;28;20153;-72
2023/03/11 05:52:20;;;;;;;1.43;0.40;;;;;;;;;;5263001;28;20578;-72
2023/03/11 05:54:51;;;;;;;5.10;0.40;;;;;;;;;;5262811;28;20071;-72
2023/03/11 05:57:23;;;;;;;5.97;0.40;;;;;;;;;;5263015;28;20021;-72
2023/03/11 05:59:54;;;;;;;2.37;0.40;;;;;;;;;;5262144;28;20032;-71
2023/03/11 06:02:25;;;;;;;4.33;1.37;;;;;;;;;;5262601;28;20028;-72
2023/03/11 06:04:56;;;;;;;2.47;0.40;;;;;;;;;;5262984;28;20028;-72
2023/03/11 06:07:27;;;;;;;2.63;0.40;;;;;;;;;;5261950;28;20503;-71
2023/03/11 06:09:59;;;;;;;4.67;0.40;;;;;;;;;;5262959;28;20078;-72
2023/03/11 06:12:32;;;;;;;1.27;0.30;;;;;;;;;;5262480;28;20102;-72
2023/03/11 06:15:05;;;;;;;1.80;0.30;;;;;;;;;;5262284;28;20020;-72
2023/03/11 06:17:36;;;;;;;2.40;0.30;;;;;;;;;;5262531;28;20423;-72
2023/03/11 06:20:08;;;;;;;3.77;0.50;;;;;;;;;;5262695;28;20033;-72
2023/03/11 06:22:39;;;;;;;2.47;0.40;;;;;;;;;;5261419;28;20056;-72
2023/03/11 06:25:11;;;;;;;2.43;0.40;;;;;;;;;;5262770;28;20106;-73
2023/03/11 06:27:43;;;;;;;2.00;0.40;;;;;;;;;;5261587;28;20017;-72
2023/03/11 06:30:14;;;;;;;4.10;1.37;;;;;;;;;;5262713;28;20078;-72
2023/03/11 06:32:46;;;;;;;3.03;0.30;;;;;;;;;;5262094;28;20017;-72
2023/03/11 06:35:17;;;;;;;1.60;0.40;;;;;;;;;;5261784;28;20063;-72
2023/03/11 06:37:48;;;;;;;4.60;0.40;;;;;;;;;;5261962;28;20469;-72
2023/03/11 06:40:19;;;;;;;3.00;0.50;;;;;;;;;;5262187;28;20127;-72
2023/03/11 06:42:51;;;;;;;5.03;0.30;;;;;;;;;;5261315;28;20482;-72
2023/03/11 06:45:22;;;;;;;1.90;0.30;;;;;;;;;;5262272;28;20096;-72
2023/03/11 06:47:53;;;;;;;4.37;0.50;;;;;;;;;;5262160;28;20016;-73
2023/03/11 06:50:24;;;;;;;6.83;0.60;;;;;;;;;;5260640;28;20061;-73
2023/03/11 06:52:56;;;;;;;3.37;0.40;;;;;;;;;;5262052;28;20021;-73
2023/03/11 06:55:27;;;;;;;3.60;0.40;;;;;;;;;;5260947;28;20035;-72
2023/03/11 06:57:58;;;;;;;2.20;0.30;;;;;;;;;;5261463;28;20063;-73
2023/03/11 07:00:30;;;;;;;2.17;0.40;;;;;;;;;;5261535;28;20028;-73
2023/03/11 07:03:01;;;;;;;3.33;0.30;;;;;;;;;;5261065;28;20555;-72
2023/03/11 07:05:32;;;;;;;4.53;1.07;;;;;;;;;;5261085;28;20028;-72
2023/03/11 07:08:03;;;;;;;2.60;0.35;;;;;;;;;;5262208;28;20082;-72
2023/03/11 07:10:35;;;;;;;3.33;0.40;;;;;;;;;;5260348;28;20036;-72
2023/03/11 07:13:06;;;;;;;1.73;0.40;;;;;;;;;;5261811;28;20375;-72
2023/03/11 07:15:37;;;;;;;3.35;0.38;;;;;;;;;;5261382;28;20095;-73
2023/03/11 07:18:09;;;;;;;2.88;0.40;;;;;;;;;;5261138;28;20078;-73
2023/03/11 07:20:40;;;;;;;1.92;0.30;;;;;;;;;;5261268;28;20017;-72
2023/03/11 07:23:11;;;;;;;3.30;0.40;;;;;;;;;;5261762;28;20106;-73
2023/03/11 07:25:45;;;;;;;5.60;0.50;;;;;;;;;;5260279;28;20012;-72
2023/03/11 07:28:17;;;;;;;4.75;0.70;;;;;;;;;;5261644;28;20017;-72
2023/03/11 07:30:48;;;;;;;1.58;0.40;;;;;;;;;;5260687;28;20029;-72
2023/03/11 07:33:21;;;;;;;2.85;0.40;;;;;;;;;;5260739;28;20075;-72
2023/03/11 07:35:52;;;;;;;1.52;0.40;;;;;;;;;;5261510;28;20029;-72
2023/03/11 07:38:23;;;;;;;5.53;0.40;;;;;;;;;;5260320;28;20017;-72
2023/03/11 07:40:58;;;;;;;2.55;0.30;;;;;;;;;;5261295;28;20021;-73
2023/03/11 07:43:29;;;;;;;2.55;0.52;;;;;;;;;;5260835;28;20024;-73
2023/03/11 07:46:02;;;;;;;2.80;0.50;;;;;;;;;;5260791;28;20028;-72
2023/03/11 07:48:34;;;;;;;4.30;0.47;;;;;;;;;;5266068;28;20030;-72
2023/03/11 07:51:15;;;;;;;2.70;0.40;;;;;;;;;;5281817;28;20110;-72
2023/03/11 07:53:47;;;;;;;2.42;0.40;;;;;;;;;;5280637;28;20017;-72
2023/03/11 07:56:19;;;;;;;5.53;0.50;;;;;;;;;;5281966;28;20032;-72
2023/03/11 07:58:51;;;;;;;2.75;0.40;;;;;;;;;;5281543;28;20021;-72
2023/03/11 08:01:23;;;;;;;5.03;0.73;;;;;;;;;;5280733;28;20027;-72
2023/03/11 08:03:56;;;;;;;2.95;0.52;;;;;;;;;;5281606;28;20039;-72
2023/03/11 08:06:30;;;;;;;4.07;0.60;;;;;;;;;;5281991;28;20455;-72
2023/03/11 08:09:03;;;;;;;3.25;0.40;;;;;;;;;;5286180;28;20104;-72
2023/03/11 08:11:35;;;;;;;3.17;0.50;;;;;;;;;;5285652;28;20077;-73
2023/03/11 08:14:06;;;;;;;4.05;0.50;;;;;;;;;;5285401;28;20103;-72
2023/03/11 08:16:38;;;;;;;2.70;0.40;;;;;;;;;;5285567;28;20123;-73
2023/03/11 08:19:10;;;;;;;4.10;0.57;;;;;;;;;;5286004;28;20020;-72
2023/03/11 08:21:41;;;;;;;3.67;0.50;;;;;;;;;;5284606;28;20023;-73
2023/03/11 08:24:12;;;;;;;2.20;0.60;;;;;;;;;;5285890;28;20012;-72
2023/03/11 08:26:44;;;;;;;5.10;0.50;;;;;;;;;;5285007;28;20029;-73
2023/03/11 08:29:15;;;;;;;3.45;0.70;;;;;;;;;;5285176;28;20042;-72
2023/03/11 08:31:46;;;;;;;2.58;0.50;;;;;;;;;;5285311;28;20028;-72
2023/03/11 08:34:18;;;;;;;4.97;0.63;;;;;;;;;;5284783;28;20020;-72
2023/03/11 08:36:50;;;;;;;3.45;0.50;;;;;;;;;;5284854;28;20066;-71
2023/03/11 08:39:22;;;;;;;4.43;0.60;;;;;;;;;;5285174;28;20012;-72
2023/03/11 08:41:53;;;;;;;2.70;0.40;;;;;;;;;;5284649;28;20066;-72
2023/03/11 08:44:25;;;;;;;1.00;0.30;;;;;;;;;;5284824;28;20040;-72
2023/03/11 08:46:56;;;;;;;2.85;0.30;;;;;;;;;;5285016;28;20052;-72
2023/03/11 08:49:27;;;;;;;1.48;0.30;;;;;;;;;;5284003;28;20045;-72
2023/03/11 08:52:00;;;;;;;3.53;0.30;;;;;;;;;;5285490;28;20032;-71
2023/03/11 08:54:31;;;;;;;1.73;0.30;;;;;;;;;;5280984;28;20016;-72
2023/03/11 08:57:03;;;;;;;1.35;0.30;;;;;;;;;;5282239;28;20024;-70
2023/03/11 08:59:35;;;;;;;4.05;0.30;;;;;;;;;;5282238;28;20027;-73
2023/03/11 09:02:08;;;;;;;1.75;0.20;;;;;;;;;;5284676;28;20012;-73
2023/03/11 09:04:39;;;;;;;1.15;0.30;;;;;;;;;;5283421;28;20024;-74
2023/03/11 09:07:11;;;;;;;1.27;0.20;;;;;;;;;;5283644;28;20025;-73
2023/03/11 09:09:43;;;;;;;2.60;0.20;;;;;;;;;;5281418;28;20390;-75
2023/03/11 09:12:14;;;;;;;1.42;0.20;;;;;;;;;;5284097;28;20056;-74
2023/03/11 09:14:45;;;;;;;2.30;0.10;;;;;;;;;;5284287;28;20068;-73
2023/03/11 09:17:16;;;;;;;1.38;0.10;;;;;;;;;;5282577;28;20020;-73
2023/03/11 09:19:47;;;;;;;2.70;0.20;;;;;;;;;;5283589;28;20009;-74
2023/03/11 09:22:19;;;;;;;3.53;0.30;;;;;;;;;;5284291;28;20032;-73
2023/03/11 09:24:50;;;;;;;2.15;0.20;;;;;;;;;;5283386;28;20012;-70
2023/03/11 09:27:21;;;;;;;1.13;0.20;;;;;;;;;;5284000;28;20029;-71
2023/03/11 09:29:52;;;;;;;2.33;0.20;;;;;;;;;;5284230;28;20012;-72
2023/03/11 09:32:23;;;;;;;1.10;0.20;;;;;;;;;;5283384;28;20455;-70
2023/03/11 09:34:56;;;;;;;1.40;0.20;;;;;;;;;;5284134;28;20478;-73
2023/03/11 09:37:29;;;;;;;3.45;0.15;;;;;;;;;;5283396;28;20017;-73
2023/03/11 09:40:00;;;;;;;4.03;0.20;;;;;;;;;;5284259;28;20024;-73
2023/03/11 09:42:31;;;;;;;1.60;0.30;;;;;;;;;;5283901;28;20013;-74
2023/03/11 09:45:08;;;;;;;1.55;0.20;;;;;;;;;;5283614;28;20046;-74
2023/03/11 09:47:49;;;;;;;1.52;0.20;;;;;;;;;;5284089;28;20017;-73
2023/03/11 09:50:23;;;;;;;2.63;0.30;;;;;;;;;;5283315;28;20063;-74
2023/03/11 09:53:33;;;;;;;2.20;0.15;;;;;;;;;;5283303;28;20371;-74
2023/03/11 09:56:06;;;;;;;3.03;0.20;;;;;;;;;;5240105;28;20034;-73
2023/03/11 09:58:39;;;;;;;2.10;0.20;;;;;;;;;;5239010;28;20083;-74
2023/03/11 10:01:19;;;;;;;2.47;0.20;;;;;;;;;;5265364;28;20115;-75
2023/03/11 10:03:53;;;;;;;3.03;0.20;;;;;;;;;;5283570;28;20012;-72
2023/03/11 10:06:27;;;;;;;0.95;0.30;;;;;;;;;;5282416;28;20533;-73
2023/03/11 10:09:03;;;;;;;0.95;0.20;;;;;;;;;;5283829;28;20360;-73
2023/03/11 10:11:34;;;;;;;1.95;0.30;;;;;;;;;;5283055;28;20135;-73
2023/03/11 10:14:24;;;;;;;1.83;0.10;;;;;;;;;;5282846;28;20021;-74
2023/03/11 10:17:04;;;;;;;0.47;0.13;;;;;;;;;;5283887;28;20304;-72
2023/03/11 10:19:41;;;;;;;1.55;0.10;;;;;;;;;;5282479;28;20035;-73
2023/03/11 10:22:21;;;;;;;1.30;0.10;;;;;;;;;;5281136;28;20028;-73
2023/03/11 10:25:09;;;;;;;2.17;0.20;;;;;;;;;;5280763;28;20060;-74
2023/03/11 10:27:44;;;;;;;0.88;0.10;;;;;;;;;;5279832;28;20027;-73
2023/03/11 10:30:15;;;;;;;3.00;0.20;;;;;;;;;;5279923;28;20032;-73
2023/03/11 10:32:49;;;;;;;2.50;0.20;;;;;;;;;;5280569;28;20028;-74
2023/03/11 10:35:22;;;;;;;2.47;0.10;;;;;;;;;;5280387;28;20016;-72
2023/03/11 10:37:57;;;;;;;2.28;0.20;;;;;;;;;;5283071;28;20498;-73
2023/03/11 10:40:30;;;;;;;1.63;0.20;;;;;;;;;;5282576;28;20017;-73
2023/03/11 10:43:09;;;;;;;1.00;0.20;;;;;;;;;;5282554;28;20028;-72
2023/03/11 10:45:43;;;;;;;3.38;0.20;;;;;;;;;;5282358;28;20425;-72
2023/03/11 10:48:15;;;;;;;1.08;0.10;;;;;;;;;;5282341;28;20076;-72
2023/03/11 10:50:50;;;;;;;2.78;0.20;;;;;;;;;;5282392;28;20124;-72
2023/03/11 10:53:21;;;;;;;5.65;0.20;;;;;;;;;;5282156;28;20021;-72
2023/03/11 10:55:53;;;;;;;2.35;0.20;;;;;;;;;;5281681;28;20027;-72
2023/03/11 10:58:26;;;;;;;2.30;0.10;;;;;;;;;;5282087;28;20070;-73
2023/03/11 11:01:06;;;;;;;1.05;0.10;;;;;;;;;;5282886;28;20020;-72
2023/03/11 11:03:40;;;;;;;2.05;0.20;;;;;;;;;;5281108;28;20012;-72
2023/03/11 11:06:20;;;;;;;2.10;0.40;;;;;;;;;;5282506;28;20027;-73
2023/03/11 11:09:05;;;;;;;2.45;0.38;;;;;;;;;;5281567;28;20025;-71
2023/03/11 11:11:38;;;;;;;1.77;0.10;;;;;;;;;;5281930;28;20508;-72
2023/03/11 11:14:09;;;;;;;2.03;0.20;;;;;;;;;;5282651;28;20482;-73
2023/03/11 11:16:40;;;;;;;1.80;0.30;;;;;;;;;;5281173;28;20016;-74
2023/03/11 11:19:13;;;;;;;3.22;0.20;;;;;;;;;;5282501;28;20012;-73
2023/03/11 11:21:47;;;;;;;0.82;0.10;;;;;;;;;;5282180;28;20024;-72
2023/03/11 11:24:18;;;;;;;2.25;0.10;;;;;;;;;;5281672;28;20485;-73
2023/03/11 11:27:03;;;;;;;2.33;0.20;;;;;;;;;;5282038;28;20016;-73
2023/03/11 11:29:34;;;;;;;1.30;0.17;;;;;;;;;;5281577;28;20496;-73
2023/03/11 11:32:18;;;;;;;1.35;0.17;;;;;;;;;;5281638;28;20067;-74
2023/03/11 11:35:06;;;;;;;1.35;0.20;;;;;;;;;;5281240;28;20463;-73
2023/03/11 11:37:46;;;;;;;2.47;0.55;;;;;;;;;;5280830;28;20032;-72
2023/03/11 11:40:22;;;;;;;2.65;0.17;;;;;;;;;;5282028;28;20099;-71
2023/03/11 11:43:03;;;;;;;0.77;0.10;;;;;;;;;;5281730;28;20013;-70
2023/03/11 11:45:38;;;;;;;1.13;0.10;;;;;;;;;;5280787;28;20024;-72
2023/03/11 11:48:21;;;;;;;1.05;0.13;;;;;;;;;;5282089;28;20012;-73
2023/03/11 11:50:56;;;;;;;1.75;0.17;;;;;;;;;;5281469;28;20045;-72
2023/03/11 11:53:47;;;;;;;2.20;0.20;;;;;;;;;;5280515;28;20105;-72
2023/03/11 11:56:18;;;;;;;1.48;0.20;;;;;;;;;;5282038;28;20032;-72
2023/03/11 11:58:49;;;;;;;0.95;0.15;;;;;;;;;;5280856;28;20024;-71
2023/03/11 12:01:38;;;;;;;1.50;0.20;;;;;;;;;;5281854;28;20017;-74
2023/03/11 12:04:29;;;;;;;3.42;0.20;;;;;;;;;;5281868;28;20097;-72
2023/03/11 12:07:17;;;;;;;1.08;0.10;;;;;;;;;;5281012;28;20467;-73
2023/03/11 12:09:49;;;;;;;1.17;0.10;;;;;;;;;;5281250;28;20013;-73
2023/03/11 12:12:26;;;;;;;0.85;0.10;;;;;;;;;;5280867;28;20368;-74
2023/03/11 12:15:06;;;;;;;1.25;0.65;;;;;;;;;;5281733;28;20611;-73
2023/03/11 12:17:39;;;;;;;1.75;0.17;;;;;;;;;;5280993;28;20416;-73
2023/03/11 12:20:13;;;;;;;1.92;0.20;;;;;;;;;;5281098;28;20414;-72
2023/03/11 12:22:53;;;;;;;1.92;0.20;;;;;;;;;;5281279;28;20115;-73
2023/03/11 12:25:32;;;;;;;5.00;0.20;;;;;;;;;;5281219;28;20031;-73
2023/03/11 12:28:11;;;;;;;0.52;0.10;;;;;;;;;;5281107;28;20058;-73
2023/03/11 12:30:52;;;;;;;2.50;0.17;;;;;;;;;;5280837;28;20029;-72
2023/03/11 12:33:29;;;;;;;2.03;0.20;;;;;;;;;;5280293;28;20095;-73
2023/03/11 12:36:01;;;;;;;0.82;0.10;;;;;;;;;;5281534;28;20372;-71
2023/03/11 12:38:34;;;;;;;2.38;0.10;;;;;;;;;;5281146;28;20013;-72
2023/03/11 12:41:06;;;;;;;1.42;0.10;;;;;;;;;;5280736;28;20103;-73
2023/03/11 12:43:37;;;;;;;2.25;0.17;;;;;;;;;;5280953;28;20095;-73
2023/03/11 12:46:09;;;;;;;3.40;0.20;;;;;;;;;;5281385;28;20531;-72
2023/03/11 12:48:42;;;;;;;3.03;0.20;;;;;;;;;;5280146;28;20337;-73
2023/03/11 12:51:25;;;;;;;1.58;0.20;;;;;;;;;;5281240;28;20048;-72
2023/03/11 12:53:56;;;;;;;1.77;0.20;;;;;;;;;;5283185;28;20028;-72
2023/03/11 12:56:41;;;;;;;1.30;0.10;;;;;;;;;;5283932;28;20448;-73
2023/03/11 12:59:24;;;;;;;1.67;0.10;;;;;;;;;;5284953;28;20115;-72
2023/03/11 13:02:15;;;;;;;1.77;0.30;;;;;;;;;;5284665;28;20438;-71
2023/03/11 13:04:56;;;;;;;1.27;0.10;;;;;;;;;;5284058;28;20333;-72
2023/03/11 13:07:35;;;;;;;5.47;0.20;;;;;;;;;;5284639;28;20047;-71
2023/03/11 13:10:06;;;;;;;1.27;0.17;;;;;;;;;;5283957;28;20043;-67
2023/03/11 13:12:39;;;;;;;3.48;0.34;;;;;;;;;;5284370;28;20025;-73
2023/03/11 13:15:16;;;;;;;1.33;0.10;;;;;;;;;;5284513;28;20073;-73
2023/03/11 13:18:01;;;;;;;3.22;0.30;;;;;;;;;;5283328;28;20060;-73
2023/03/11 13:20:41;;;;;;;1.50;0.20;;;;;;;;;;5284465;28;20017;-73
2023/03/11 13:23:12;;;;;;;1.63;0.20;;;;;;;;;;5284060;28;20025;-73
2023/03/11 13:25:47;;;;;;;1.30;0.20;;;;;;;;;;5284159;28;20040;-73
2023/03/11 13:28:36;;;;;;;1.40;0.30;;;;;;;;;;5284688;28;20021;-74
2023/03/11 13:31:13;;;;;;;2.63;0.20;;;;;;;;;;5283900;28;20036;-74
2023/03/11 13:33:52;;;;;;;2.17;0.20;;;;;;;;;;5284018;28;20387;-73
2023/03/11 13:36:26;;;;;;;2.47;0.20;;;;;;;;;;5284022;28;20016;-74
2023/03/11 13:39:04;;;;;;;0.95;0.20;;;;;;;;;;5283978;28;20021;-74
2023/03/11 13:41:36;;;;;;;3.00;0.20;;;;;;;;;;5283825;28;20028;-74
2023/03/11 13:44:23;;;;;;;3.05;0.17;;;;;;;;;;5283721;28;20363;-74
2023/03/11 13:47:01;;;;;;;1.75;0.22;;;;;;;;;;5283983;28;20056;-74
2023/03/11 13:49:41;;;;;;;2.03;0.20;;;;;;;;;;5283709;28;20053;-74
2023/03/11 13:52:14;;;;;;;1.48;0.10;;;;;;;;;;5283535;28;20475;-74
2023/03/11 13:54:54;;;;;;;0.65;0.10;;;;;;;;;;5283649;28;20392;-73
2023/03/11 13:57:27;;;;;;;2.47;0.30;;;;;;;;;;5283511;28;20389;-73
2023/03/11 14:00:16;;;;;;;2.42;0.20;;;;;;;;;;5283426;28;20017;-74
2023/03/11 14:02:53;;;;;;;1.35;0.20;;;;;;;;;;5283416;28;20025;-74
2023/03/11 14:05:26;;;;;;;2.92;0.43;;;;;;;;;;5282693;28;20653;-74
2023/03/11 14:08:15;;;;;;;1.45;0.20;;;;;;;;;;5283715;28;20066;-74
2023/03/11 14:10:50;;;;;;;2.65;0.30;;;;;;;;;;5283308;28;20037;-73
2023/03/11 14:13:22;;;;;;;5.10;0.20;;;;;;;;;;5282793;28;20016;-73
2023/03/11 14:15:57;;;;;;;1.25;0.20;;;;;;;;;;5283658;28;20020;-73
2023/03/11 14:18:31;;;;;;;2.08;0.10;;;;;;;;;;5283467;28;20024;-73
2023/03/11 14:21:03;;;;;;;2.53;0.20;;;;;;;;;;5283113;28;20035;-75
2023/03/11 14:23:38;;;;;;;1.20;0.20;;;;;;;;;;5283216;28;20367;-74
2023/03/11 14:26:14;;;;;;;0.73;0.10;;;;;;;;;;5282697;28;20479;-74
2023/03/11 14:28:48;;;;;;;2.28;0.10;;;;;;;;;;5282890;28;20082;-74
2023/03/11 14:31:28;;;;;;;2.42;0.20;;;;;;;;;;5283402;28;20029;-74
2023/03/11 14:34:03;;;;;;;0.85;0.10;;;;;;;;;;5282717;28;20032;-74
2023/03/11 14:36:49;;;;;;;1.25;0.10;;;;;;;;;;5282757;28;20013;-74
2023/03/11 14:39:28;;;;;;;1.85;0.10;;;;;;;;;;5282927;28;20425;-74
2023/03/11 14:42:11;;;;;;;1.00;0.10;;;;;;;;;;5282355;28;20027;-74
2023/03/11 14:44:42;;;;;;;1.70;0.20;;;;;;;;;;5282540;28;20027;-74
2023/03/11 14:47:19;;;;;;;1.65;0.10;;;;;;;;;;5282438;28;20025;-73
2023/03/11 14:49:51;;;;;;;2.25;0.25;;;;;;;;;;5282681;28;20163;-73
2023/03/11 14:52:38;;;;;;;0.77;0.17;;;;;;;;;;5282968;28;20091;-74
2023/03/11 14:55:18;;;;;;;2.65;0.95;;;;;;;;;;5282204;28;20455;-73
2023/03/11 14:57:54;;;;;;;1.08;0.10;;;;;;;;;;5282457;28;20528;-73
2023/03/11 15:00:28;;;;;;;0.75;0.10;;;;;;;;;;5282092;28;20056;-74
2023/03/11 15:03:12;;;;;;;0.85;0.10;;;;;;;;;;5282042;28;20024;-73
2023/03/11 15:05:52;;;;;;;2.90;0.20;;;;;;;;;;5282287;28;20028;-74
2023/03/11 15:08:26;;;;;;;1.35;0.15;;;;;;;;;;5281228;28;20095;-72
2023/03/11 15:11:00;;;;;;;1.85;0.13;;;;;;;;;;5282564;28;20047;-72
2023/03/11 15:13:32;;;;;;;0.80;0.20;;;;;;;;;;5282028;28;20459;-72
2023/03/11 15:16:05;;;;;;;1.27;0.20;;;;;;;;;;5281372;28;20021;-72
2023/03/11 15:18:37;;;;;;;1.38;0.17;;;;;;;;;;5281904;28;20090;-71
2023/03/11 15:21:16;;;;;;;1.42;0.40;;;;;;;;;;5282602;28;20016;-72